Time;durP1;ratioP1;P1;durP2;ratioP2;P2;SDS_P1;SDS_P2;PMS_P1;PMS_P2;Temp;Humidity;BMP_temperature;BMP_pressure;BME280_temperature;BME280_humidity;BME280_pressure;Samples;Min_cycle;Max_cycle;Signal;HPM_P1;HPM_P2
2022/08/12 00:44:46;;;;;;;1.08;1.02;;;19.40;78.70;;;;;;5053198;28;20285;-88
2022/08/12 00:47:19;;;;;;;1.52;1.42;;;19.30;79.20;;;;;;5052692;28;20209;-88
2022/08/12 00:49:54;;;;;;;1.35;1.30;;;19.30;79.00;;;;;;5052918;28;20209;-88
2022/08/12 00:52:23;;;;;;;1.40;1.35;;;19.30;79.40;;;;;;5053048;28;20217;-88
2022/08/12 00:54:55;;;;;;;1.30;1.17;;;19.20;79.40;;;;;;5052889;28;20216;-88
2022/08/12 00:57:26;;;;;;;1.83;1.73;;;19.20;80.40;;;;;;5053202;28;20228;-88
2022/08/12 00:59:56;;;;;;;1.25;1.25;;;19.10;80.50;;;;;;5052854;28;20230;-89
2022/08/12 01:02:28;;;;;;;2.38;1.42;;;19.10;80.30;;;;;;5052787;28;20245;-88
2022/08/12 01:13:21;;;;;;;1.42;1.33;;;18.90;83.00;;;;;;5052853;28;20233;-88
2022/08/12 01:15:52;;;;;;;1.17;1.10;;;18.90;82.70;;;;;;5052223;28;20209;-89
2022/08/12 01:18:23;;;;;;;1.10;1.10;;;18.80;81.50;;;;;;5052814;28;20300;-89
2022/08/12 01:21:03;;;;;;;1.38;1.27;;;18.80;82.20;;;;;;5052669;28;20310;-88
2022/08/12 01:24:04;;;;;;;2.28;1.50;;;18.70;83.10;;;;;;5052393;28;20225;-88
2022/08/12 01:26:55;;;;;;;1.30;1.30;;;18.70;82.60;;;;;;5052917;28;20210;-88
2022/08/12 01:29:27;;;;;;;1.00;1.00;;;18.70;82.80;;;;;;5052684;28;20216;-89
2022/08/12 01:32:05;;;;;;;1.08;1.08;;;18.60;85.40;;;;;;5052344;28;20241;-89
2022/08/12 01:34:37;;;;;;;1.27;1.20;;;18.60;84.60;;;;;;5052412;28;20205;-88
2022/08/12 01:37:07;;;;;;;1.25;1.23;;;18.50;84.50;;;;;;5052431;28;20206;-88
2022/08/12 01:39:39;;;;;;;1.10;1.10;;;18.50;84.90;;;;;;5052682;28;20215;-88
2022/08/12 01:42:33;;;;;;;1.77;1.65;;;18.50;84.20;;;;;;5052104;28;20223;-88
2022/08/12 01:45:02;;;;;;;1.42;1.33;;;18.40;85.20;;;;;;5052568;28;20220;-88
2022/08/12 01:47:42;;;;;;;1.48;1.38;;;18.40;85.60;;;;;;5052568;28;20288;-89
2022/08/12 01:50:21;;;;;;;7.95;1.35;;;18.40;87.40;;;;;;5052330;28;20264;-88
2022/08/12 01:52:57;;;;;;;1.42;1.33;;;18.30;87.50;;;;;;5060778;28;20225;-88
2022/08/12 01:55:31;;;;;;;2.83;1.52;;;18.30;86.00;;;;;;5072386;28;20205;-88
2022/08/12 01:58:11;;;;;;;1.65;1.55;;;18.30;86.60;;;;;;5054362;28;20240;-88
2022/08/12 02:00:50;;;;;;;1.23;1.17;;;18.30;87.80;;;;;;5052103;28;20241;-88
2022/08/12 02:12:25;;;;;;;1.27;1.17;;;18.10;88.70;;;;;;5052918;28;20236;-88
2022/08/12 02:15:11;;;;;;;1.27;1.17;;;18.10;87.30;;;;;;5053346;28;20212;-88
2022/08/12 02:17:58;;;;;;;1.40;1.30;;;18.10;88.60;;;;;;5053103;28;20202;-89
2022/08/12 02:20:35;;;;;;;0.82;0.80;;;18.10;88.10;;;;;;5052321;28;20358;-88
2022/08/12 02:23:24;;;;;;;1.45;1.30;;;18.00;89.00;;;;;;5052677;28;20407;-89
2022/08/12 02:25:55;;;;;;;1.10;1.10;;;18.00;90.10;;;;;;5054073;28;20217;-89
2022/08/12 02:28:24;;;;;;;1.55;1.45;;;18.00;91.10;;;;;;5056172;28;20288;-88
2022/08/12 02:30:55;;;;;;;1.10;1.10;;;18.00;90.40;;;;;;5056308;28;20241;-89
2022/08/12 02:33:24;;;;;;;1.17;1.17;;;18.00;90.30;;;;;;5056536;28;20197;-88
2022/08/12 02:35:54;;;;;;;1.42;1.33;;;17.90;90.00;;;;;;5056333;28;20210;-88
2022/08/12 02:38:26;;;;;;;1.25;1.15;;;17.90;90.40;;;;;;5055804;28;20202;-88
2022/08/12 02:40:55;;;;;;;1.00;1.00;;;17.90;91.60;;;;;;5056173;28;20321;-89
2022/08/12 02:43:30;;;;;;;1.55;1.25;;;17.90;92.00;;;;;;5055907;28;20229;-88
2022/08/12 02:46:04;;;;;;;0.90;0.90;;;17.80;91.90;;;;;;5055862;28;20280;-88
2022/08/12 02:48:47;;;;;;;1.23;1.13;;;17.80;92.20;;;;;;5055575;28;20221;-88
2022/08/12 02:51:19;;;;;;;1.42;1.10;;;17.80;91.10;;;;;;5055832;28;20304;-89
2022/08/12 02:53:49;;;;;;;1.40;1.30;;;17.80;91.60;;;;;;5056054;28;20289;-88
2022/08/12 02:56:35;;;;;;;1.30;1.20;;;17.70;92.10;;;;;;5055974;28;20229;-88
2022/08/12 02:59:04;;;;;;;1.38;1.27;;;17.70;92.70;;;;;;5055414;28;20206;-88
2022/08/12 03:01:37;;;;;;;1.60;1.50;;;17.70;92.70;;;;;;5055468;28;20260;-88
2022/08/12 03:04:23;;;;;;;1.35;1.25;;;17.70;93.10;;;;;;5055245;28;20226;-89
2022/08/12 03:07:00;;;;;;;1.30;1.20;;;17.70;93.00;;;;;;5055930;28;20213;-89
2022/08/12 03:09:32;;;;;;;1.50;1.38;;;17.60;92.80;;;;;;5055682;28;20209;-89
2022/08/12 03:12:23;;;;;;;1.23;1.15;;;17.60;92.40;;;;;;5055454;28;20236;-90
2022/08/12 03:14:54;;;;;;;1.35;1.25;;;17.60;93.20;;;;;;5055487;28;20228;-88
2022/08/12 03:17:30;;;;;;;1.15;1.15;;;17.60;93.50;;;;;;5055358;28;20233;-90
2022/08/12 03:19:59;;;;;;;1.73;1.63;;;17.50;93.10;;;;;;5055099;28;20217;-88
2022/08/12 03:22:39;;;;;;;1.00;1.00;;;17.50;93.80;;;;;;5055750;28;20290;-88
2022/08/12 03:25:16;;;;;;;1.42;1.33;;;17.50;94.10;;;;;;5055568;28;20293;-88
2022/08/12 03:27:54;;;;;;;1.58;1.13;;;17.40;95.20;;;;;;5055369;28;20210;-88
2022/08/12 03:30:24;;;;;;;1.23;1.20;;;17.40;94.90;;;;;;5054649;28;20242;-88
2022/08/12 03:32:56;;;;;;;1.17;1.10;;;17.30;94.80;;;;;;5055488;28;20228;-88
2022/08/12 03:35:31;;;;;;;1.48;1.38;;;17.20;95.50;;;;;;5055421;28;20206;-89
2022/08/12 03:38:14;;;;;;;1.15;1.13;;;17.20;96.60;;;;;;5054326;28;20209;-89
2022/08/12 04:00:36;;;;;;;1.30;1.25;;;17.20;99.10;;;;;;5054514;28;20304;-88
2022/08/12 04:03:50;;;;;;;1.40;1.30;;;17.10;99.40;;;;;;5054317;28;20212;-88
2022/08/12 04:05:55;;;;;;;1.30;1.25;;;17.10;99.60;;;;;;5054455;28;20206;-88
2022/08/12 04:08:25;;;;;;;3.55;1.75;;;17.20;99.40;;;;;;5054310;28;20267;-87
2022/08/12 04:13:40;;;;;;;1.70;1.60;;;17.20;99.10;;;;;;5054399;28;20290;-89
2022/08/12 04:16:13;;;;;;;1.08;1.08;;;17.10;99.50;;;;;;5054437;28;20256;-89
2022/08/12 04:18:42;;;;;;;1.70;1.58;;;17.20;99.90;;;;;;5054283;28;20288;-90
2022/08/12 04:21:11;;;;;;;1.95;1.80;;;17.10;99.90;;;;;;5054152;28;20232;-88
2022/08/12 04:23:42;;;;;;;1.70;1.60;;;17.20;99.90;;;;;;5054285;28;20218;-88
2022/08/12 04:26:16;;;;;;;1.55;1.45;;;17.10;99.90;;;;;;5053929;28;20231;-88
2022/08/12 04:28:44;;;;;;;1.73;1.33;;;17.20;99.90;;;;;;5053852;28;20220;-88
2022/08/12 04:31:13;;;;;;;1.50;1.40;;;17.20;99.90;;;;;;5054024;28;20236;-89
2022/08/12 04:33:43;;;;;;;1.45;1.35;;;17.20;99.90;;;;;;5053960;28;20245;-91
2022/08/12 04:36:13;;;;;;;1.60;1.50;;;17.20;99.90;;;;;;5054022;28;20215;-90
2022/08/12 04:38:43;;;;;;;1.40;1.30;;;17.30;99.90;;;;;;5053494;28;20283;-89
2022/08/12 04:41:12;;;;;;;2.85;1.75;;;17.30;99.90;;;;;;5053833;28;20285;-89
2022/08/12 04:43:40;;;;;;;1.90;1.42;;;17.30;99.90;;;;;;5054204;28;20249;-89
2022/08/12 04:46:28;;;;;;;1.25;1.25;;;17.40;99.90;;;;;;5053777;28;20204;-90
2022/08/12 04:49:02;;;;;;;1.58;1.48;;;17.30;99.90;;;;;;5052927;28;20252;-90
2022/08/12 04:51:32;;;;;;;1.30;1.20;;;17.30;99.90;;;;;;5053481;28;20248;-89
2022/08/12 04:54:03;;;;;;;2.00;1.65;;;17.30;99.90;;;;;;5053679;28;20281;-90
2022/08/12 04:56:32;;;;;;;1.60;1.50;;;17.30;99.90;;;;;;5053647;28;20284;-90
2022/08/12 04:59:02;;;;;;;1.88;1.55;;;17.40;99.90;;;;;;5053278;28;20197;-90
2022/08/12 05:01:31;;;;;;;1.75;1.65;;;17.40;99.90;;;;;;5053250;28;20250;-89
2022/08/12 05:04:01;;;;;;;1.35;1.30;;;17.40;99.90;;;;;;5053254;28;20279;-90
2022/08/12 05:06:31;;;;;;;1.42;1.27;;;17.40;99.90;;;;;;5053738;28;20205;-90
2022/08/12 05:09:00;;;;;;;1.52;1.42;;;17.40;99.90;;;;;;5064132;28;20228;-89
2022/08/12 05:11:28;;;;;;;1.55;1.45;;;17.30;99.90;;;;;;5075166;28;20298;-89
2022/08/12 05:13:59;;;;;;;1.58;1.48;;;17.40;99.90;;;;;;5056697;28;20296;-90
2022/08/12 05:16:29;;;;;;;3.60;1.65;;;17.40;99.90;;;;;;5053422;28;20206;-89
2022/08/12 05:19:04;;;;;;;2.35;2.05;;;17.40;99.90;;;;;;5053139;28;20229;-90
2022/08/12 05:21:41;;;;;;;1.65;1.55;;;17.40;99.90;;;;;;5053038;28;20236;-90
2022/08/12 05:24:09;;;;;;;1.52;1.42;;;17.40;99.90;;;;;;5052904;28;20256;-89
2022/08/12 05:26:38;;;;;;;1.90;1.70;;;17.50;99.90;;;;;;5053003;28;20297;-89
2022/08/12 05:29:11;;;;;;;1.77;1.67;;;17.50;99.90;;;;;;5052727;28;20206;-90
2022/08/12 05:31:59;;;;;;;1.70;1.60;;;17.50;99.90;;;;;;5052991;28;20244;-89
2022/08/12 05:34:28;;;;;;;1.98;1.80;;;17.60;99.90;;;;;;5053519;28;20285;-90
2022/08/12 05:36:59;;;;;;;2.00;1.90;;;17.60;99.90;;;;;;5053026;28;20292;-90
2022/08/12 05:39:27;;;;;;;1.52;1.42;;;17.60;99.90;;;;;;5052998;28;20210;-89
2022/08/12 05:41:56;;;;;;;1.50;1.40;;;17.70;99.90;;;;;;5052544;28;20237;-90
2022/08/12 05:44:24;;;;;;;2.05;1.85;;;17.80;99.90;;;;;;5052696;28;20254;-90
2022/08/12 05:46:53;;;;;;;1.85;1.63;;;17.80;99.90;;;;;;5052475;28;20292;-89
2022/08/12 05:49:21;;;;;;;1.65;1.50;;;17.90;99.90;;;;;;5052341;28;20205;-90
2022/08/12 05:51:49;;;;;;;2.10;1.90;;;18.00;99.90;;;;;;5052625;28;20252;-89
2022/08/12 05:54:19;;;;;;;1.63;1.58;;;18.10;99.90;;;;;;5052709;28;20280;-90
2022/08/12 05:57:10;;;;;;;1.70;1.60;;;18.20;99.90;;;;;;5052611;28;20249;-89
2022/08/12 05:59:38;;;;;;;1.80;1.70;;;18.30;99.90;;;;;;5052462;28;20288;-90
2022/08/12 06:02:10;;;;;;;2.28;1.92;;;18.30;99.90;;;;;;5056335;28;20237;-89
2022/08/12 06:04:40;;;;;;;2.55;1.98;;;18.40;99.90;;;;;;5056832;28;20252;-90
2022/08/12 06:07:12;;;;;;;3.30;2.30;;;18.50;99.90;;;;;;5056753;28;20291;-90
2022/08/12 06:10:02;;;;;;;2.08;1.98;;;18.50;99.90;;;;;;5056191;28;20201;-89
2022/08/12 06:12:30;;;;;;;2.25;2.03;;;18.60;99.90;;;;;;5056160;28;20209;-90
2022/08/12 06:14:59;;;;;;;3.00;1.77;;;18.60;99.90;;;;;;5056452;28;20281;-89
2022/08/12 06:17:29;;;;;;;2.08;1.98;;;18.60;99.90;;;;;;5056190;28;20293;-90
2022/08/12 06:19:58;;;;;;;1.80;1.70;;;18.70;99.90;;;;;;5056363;28;20236;-89
2022/08/12 06:22:47;;;;;;;1.75;1.42;;;18.80;99.90;;;;;;5056383;28;20205;-89
2022/08/12 06:25:18;;;;;;;1.80;1.70;;;19.00;99.90;;;;;;5056214;28;20225;-89
2022/08/12 06:27:50;;;;;;;2.45;2.25;;;19.10;99.90;;;;;;5056294;28;20217;-89
2022/08/12 06:30:36;;;;;;;1.98;1.88;;;19.30;99.90;;;;;;5056066;28;20229;-89
2022/08/12 06:33:07;;;;;;;2.22;2.03;;;19.50;99.90;;;;;;5056483;28;20209;-90
2022/08/12 06:35:50;;;;;;;5.47;1.98;;;19.60;99.90;;;;;;5056350;28;20209;-89
2022/08/12 06:38:25;;;;;;;2.13;1.92;;;19.70;99.90;;;;;;5056183;28;20288;-90
2022/08/12 06:43:44;;;;;;;1.65;1.55;;;20.20;99.70;;;;;;5055837;28;20269;-89
2022/08/12 06:46:32;;;;;;;1.80;1.70;;;20.40;99.20;;;;;;5055748;28;20248;-88
2022/08/12 06:49:01;;;;;;;2.05;1.80;;;20.50;99.00;;;;;;5055527;28;20216;-90
2022/08/12 06:51:31;;;;;;;1.88;1.65;;;20.60;99.70;;;;;;5055452;28;20232;-90
2022/08/12 06:54:01;;;;;;;2.22;1.80;;;20.80;99.90;;;;;;5055966;28;20297;-90
2022/08/12 06:56:31;;;;;;;1.95;1.80;;;20.90;98.60;;;;;;5055987;28;20208;-89
2022/08/12 06:59:20;;;;;;;2.58;2.38;;;21.00;97.70;;;;;;5055544;28;20201;-90
2022/08/12 07:01:48;;;;;;;1.42;1.33;;;21.10;97.80;;;;;;5055918;28;20304;-90
2022/08/12 07:04:20;;;;;;;2.10;1.92;;;21.30;96.20;;;;;;5055676;28;20213;-89
2022/08/12 07:07:07;;;;;;;2.17;1.95;;;21.40;96.20;;;;;;5055641;28;20273;-89
2022/08/12 07:09:36;;;;;;;1.90;1.77;;;21.50;95.50;;;;;;5055404;28;20217;-90
2022/08/12 07:12:26;;;;;;;1.63;1.50;;;21.70;95.10;;;;;;5054588;28;20228;-90
2022/08/12 07:14:55;;;;;;;2.45;2.00;;;21.60;95.80;;;;;;5055752;28;20213;-89
2022/08/12 07:17:24;;;;;;;4.03;2.22;;;21.70;95.10;;;;;;5055685;28;20293;-89
2022/08/12 07:19:53;;;;;;;3.38;2.05;;;21.80;94.90;;;;;;5055172;28;20248;-89
2022/08/12 07:22:28;;;;;;;5.80;1.90;;;21.70;94.80;;;;;;5055493;28;20201;-89
2022/08/12 07:27:41;;;;;;;5.25;1.40;;;21.70;94.90;;;;;;5055477;28;20337;-90
2022/08/12 07:30:11;;;;;;;1.65;1.55;;;21.70;95.50;;;;;;5055108;28;20214;-90
2022/08/12 07:32:39;;;;;;;2.47;2.13;;;21.70;94.60;;;;;;5055002;28;20288;-89
2022/08/12 07:35:08;;;;;;;3.20;1.60;;;21.80;94.90;;;;;;5055149;28;20206;-90
2022/08/12 07:37:40;;;;;;;2.60;2.40;;;22.10;94.20;;;;;;5054657;28;20240;-89
2022/08/12 07:40:10;;;;;;;1.95;1.83;;;22.20;93.70;;;;;;5054555;28;20236;-89
2022/08/12 07:42:42;;;;;;;7.22;1.95;;;22.20;93.50;;;;;;5054997;28;20204;-89
2022/08/12 07:45:12;;;;;;;1.85;1.75;;;22.30;94.10;;;;;;5055134;28;20233;-89
2022/08/12 07:47:42;;;;;;;1.95;1.77;;;22.50;93.10;;;;;;5054664;28;20260;-89
2022/08/12 07:50:11;;;;;;;1.67;1.58;;;22.80;92.50;;;;;;5054529;28;20202;-89
2022/08/12 07:52:42;;;;;;;2.38;2.17;;;23.00;92.30;;;;;;5054683;28;20269;-89
2022/08/12 07:55:12;;;;;;;1.58;1.50;;;23.30;91.70;;;;;;5054625;28;20220;-89
2022/08/12 07:57:56;;;;;;;1.75;1.65;;;23.90;91.90;;;;;;5055075;28;20252;-89
2022/08/12 08:00:26;;;;;;;2.25;2.03;;;24.80;92.00;;;;;;5054840;28;20249;-89
2022/08/12 08:02:54;;;;;;;2.03;1.73;;;25.50;90.20;;;;;;5054663;28;20288;-88
2022/08/12 08:05:25;;;;;;;1.60;1.50;;;25.80;86.30;;;;;;5054189;28;20248;-89
2022/08/12 08:07:54;;;;;;;3.20;2.25;;;26.00;85.10;;;;;;5054359;28;20256;-89
2022/08/12 08:10:22;;;;;;;2.00;1.90;;;26.40;84.60;;;;;;5054280;28;20313;-89
2022/08/12 08:12:54;;;;;;;2.25;2.13;;;26.60;84.50;;;;;;5054715;28;20213;-89
2022/08/12 08:15:25;;;;;;;2.33;2.17;;;27.40;84.90;;;;;;5054050;28;20208;-89
2022/08/12 08:18:16;;;;;;;3.00;2.22;;;27.90;79.90;;;;;;5053861;28;20273;-89
2022/08/12 08:20:54;;;;;;;1.92;1.83;;;28.60;81.10;;;;;;5054447;28;20252;-90
2022/08/12 08:24:13;;;;;;;1.80;1.70;;;29.00;76.70;;;;;;5053661;28;20301;-87
2022/08/12 08:26:14;;;;;;;1.70;1.60;;;;;;;;;;5053971;28;20221;-88
2022/08/12 08:28:44;;;;;;;5.32;1.98;;;29.40;73.60;;;;;;5053895;28;20213;-88
2022/08/12 08:31:13;;;;;;;1.92;1.80;;;30.30;73.70;;;;;;5053836;28;20235;-88
2022/08/12 08:33:42;;;;;;;2.05;1.77;;;30.70;71.40;;;;;;5064760;28;20212;-88
2022/08/12 08:36:30;;;;;;;1.85;1.75;;;31.30;69.50;;;;;;5066015;28;20206;-89
2022/08/12 08:38:58;;;;;;;1.50;1.40;;;31.80;63.90;;;;;;5073499;28;20200;-89
2022/08/12 08:44:36;;;;;;;2.65;2.13;;;31.70;65.10;;;;;;5053482;28;20208;-88
2022/08/12 08:47:06;;;;;;;1.77;1.65;;;32.00;60.60;;;;;;5053307;28;20225;-88
2022/08/12 08:49:34;;;;;;;4.32;1.88;;;32.50;63.50;;;;;;5053565;28;20225;-88
2022/08/12 08:52:06;;;;;;;2.13;1.92;;;32.80;65.50;;;;;;5053667;28;20243;-88
2022/08/12 08:54:36;;;;;;;1.38;1.27;;;33.20;62.00;;;;;;5053665;28;20209;-88
2022/08/12 08:57:06;;;;;;;1.45;1.42;;;33.30;59.80;;;;;;5053680;28;20292;-88
2022/08/12 08:59:36;;;;;;;1.35;1.27;;;33.10;58.10;;;;;;5053615;28;20209;-89
2022/08/12 09:02:05;;;;;;;1.88;1.77;;;32.90;57.40;;;;;;5053930;28;20320;-87
2022/08/12 09:04:35;;;;;;;1.38;1.27;;;33.10;62.20;;;;;;5053236;28;20217;-89
2022/08/12 09:07:24;;;;;;;1.70;1.60;;;33.60;62.00;;;;;;5052878;28;20225;-88
2022/08/12 09:10:16;;;;;;;1.33;1.23;;;33.90;58.90;;;;;;5053483;28;20224;-87
2022/08/12 09:16:12;;;;;;;1.80;1.60;;;34.10;57.00;;;;;;5053328;28;20208;-89
2022/08/12 09:18:42;;;;;;;1.58;1.40;;;34.40;56.10;;;;;;5052825;28;20200;-88
2022/08/12 09:21:11;;;;;;;4.85;2.00;;;34.20;53.70;;;;;;5052959;28;20228;-89
2022/08/12 09:23:41;;;;;;;2.67;2.47;;;34.10;55.90;;;;;;5052887;28;20240;-88
2022/08/12 09:26:30;;;;;;;1.52;1.42;;;34.30;54.40;;;;;;5052981;28;20228;-89
2022/08/12 09:29:01;;;;;;;1.80;1.70;;;34.40;53.90;;;;;;5053001;28;20224;-88
2022/08/12 09:31:41;;;;;;;1.77;1.67;;;34.80;52.50;;;;;;5052936;28;20300;-88
2022/08/12 09:34:30;;;;;;;1.70;1.60;;;34.90;56.50;;;;;;5052477;28;20201;-88
2022/08/12 09:37:02;;;;;;;2.40;1.50;;;35.50;52.80;;;;;;5052716;28;20229;-88
2022/08/12 09:39:49;;;;;;;2.05;1.85;;;35.60;52.40;;;;;;5052676;28;20229;-88
2022/08/12 09:45:47;;;;;;;1.70;1.60;;;35.60;52.30;;;;;;5052624;28;20204;-88
2022/08/12 09:48:37;;;;;;;1.50;1.40;;;35.90;54.30;;;;;;5052770;28;20212;-88
2022/08/12 09:51:07;;;;;;;2.65;1.65;;;36.00;50.50;;;;;;5053045;28;20225;-88
2022/08/12 09:53:49;;;;;;;1.77;1.67;;;35.90;49.30;;;;;;5052829;28;20201;-88
2022/08/12 09:56:39;;;;;;;2.08;1.98;;;35.60;50.20;;;;;;5052533;28;20201;-88
2022/08/12 09:59:27;;;;;;;1.95;1.60;;;36.20;51.10;;;;;;5052580;28;20227;-88
2022/08/12 10:02:15;;;;;;;1.50;1.40;;;36.30;50.50;;;;;;5052572;28;20235;-88
2022/08/12 10:05:07;;;;;;;2.17;1.73;;;36.20;50.60;;;;;;5052683;28;20217;-88
2022/08/12 10:07:40;;;;;;;1.85;1.63;;;36.40;48.20;;;;;;5052469;28;20217;-88
2022/08/12 10:10:10;;;;;;;1.83;1.60;;;36.30;50.90;;;;;;5052113;28;20239;-88
2022/08/12 10:16:04;;;;;;;1.67;1.58;;;35.50;49.50;;;;;;5052489;28;20266;-88
2022/08/12 10:18:36;;;;;;;1.58;1.48;;;35.40;48.90;;;;;;5052380;28;20205;-88
2022/08/12 10:21:22;;;;;;;1.65;1.55;;;35.70;48.90;;;;;;5052273;28;20221;-87
2022/08/12 10:24:03;;;;;;;1.48;1.38;;;35.50;49.80;;;;;;5052481;28;20262;-88
2022/08/12 10:29:40;;;;;;;2.47;1.42;;;35.00;50.60;;;;;;5052079;28;20244;-88
2022/08/12 10:32:29;;;;;;;1.98;1.40;;;35.00;51.60;;;;;;5052301;28;20213;-88
2022/08/12 10:35:15;;;;;;;1.20;1.20;;;34.80;51.20;;;;;;5052027;28;20209;-89
2022/08/12 10:37:46;;;;;;;1.80;1.70;;;35.10;50.80;;;;;;5052222;28;20205;-89
2022/08/12 10:43:39;;;;;;;1.40;1.30;;;35.40;51.30;;;;;;5051816;28;20229;-88
2022/08/12 10:46:23;;;;;;;1.42;1.33;;;35.80;50.10;;;;;;5052780;28;20209;-88
2022/08/12 10:48:59;;;;;;;1.70;1.55;;;35.80;49.70;;;;;;5055374;28;20211;-88
2022/08/12 10:51:50;;;;;;;1.67;1.58;;;35.90;48.90;;;;;;5055426;28;20225;-89
2022/08/12 10:54:41;;;;;;;1.50;1.40;;;36.10;47.50;;;;;;5055859;28;20228;-88
2022/08/12 10:57:10;;;;;;;4.22;1.67;;;36.10;48.20;;;;;;5055946;28;20213;-89
2022/08/12 10:59:58;;;;;;;2.88;1.90;;;35.70;46.10;;;;;;5055709;28;20201;-89
2022/08/12 11:02:53;;;;;;;1.75;1.58;;;35.50;47.00;;;;;;5056215;28;20216;-88
2022/08/12 11:05:43;;;;;;;4.50;1.45;;;35.20;48.70;;;;;;5055644;28;20201;-90
2022/08/12 11:08:31;;;;;;;1.67;1.58;;;35.50;48.70;;;;;;5055214;28;20232;-90
2022/08/12 11:11:16;;;;;;;1.63;1.52;;;35.80;49.10;;;;;;5055507;28;20225;-89
2022/08/12 11:14:05;;;;;;;1.67;1.58;;;35.60;48.80;;;;;;5055442;28;20205;-88
2022/08/12 11:16:55;;;;;;;1.98;1.70;;;35.80;49.30;;;;;;5055552;28;20212;-90
2022/08/12 11:19:45;;;;;;;1.70;1.60;;;35.80;46.10;;;;;;5055331;28;20202;-89
2022/08/12 11:22:13;;;;;;;1.50;1.40;;;36.20;45.60;;;;;;5055467;28;20221;-90
2022/08/12 11:24:45;;;;;;;1.50;1.40;;;36.20;46.10;;;;;;5055153;28;20216;-90
2022/08/12 11:27:20;;;;;;;1.10;1.10;;;36.30;47.80;;;;;;5055171;28;20227;-90
2022/08/12 11:29:49;;;;;;;1.60;1.50;;;36.30;45.90;;;;;;5054921;28;20205;-90
2022/08/12 11:32:33;;;;;;;1.00;1.00;;;36.60;45.30;;;;;;5055117;28;20217;-89
2022/08/12 11:35:07;;;;;;;1.40;1.30;;;36.80;44.00;;;;;;5055096;28;20201;-90
2022/08/12 11:37:39;;;;;;;1.50;1.40;;;36.70;45.80;;;;;;5055199;28;20208;-90
2022/08/12 11:40:27;;;;;;;1.60;1.40;;;36.50;45.40;;;;;;5055018;28;20221;-90
2022/08/12 11:42:59;;;;;;;1.58;1.48;;;36.60;46.20;;;;;;5055139;28;20261;-90
2022/08/12 11:45:46;;;;;;;1.20;1.08;;;36.40;44.10;;;;;;5054993;28;20198;-90
2022/08/12 11:48:20;;;;;;;1.75;1.65;;;36.60;45.50;;;;;;5054523;28;20225;-89
2022/08/12 11:50:54;;;;;;;1.10;1.05;;;36.80;45.40;;;;;;5054691;28;20233;-90
2022/08/12 11:53:23;;;;;;;1.35;1.17;;;36.50;44.70;;;;;;5054310;28;20208;-89
2022/08/12 11:56:11;;;;;;;1.60;1.50;;;36.30;44.10;;;;;;5054384;28;20215;-90
2022/08/12 11:58:41;;;;;;;1.70;1.25;;;36.30;44.50;;;;;;5053674;28;20284;-90
2022/08/12 12:01:29;;;;;;;1.50;1.40;;;36.80;44.80;;;;;;5054112;28;20227;-90
2022/08/12 12:04:18;;;;;;;1.85;1.70;;;37.00;41.80;;;;;;5054222;28;20213;-89
2022/08/12 12:06:57;;;;;;;2.28;2.08;;;37.20;43.10;;;;;;5054821;28;20205;-89
2022/08/12 12:09:38;;;;;;;2.13;1.85;;;37.10;45.30;;;;;;5054778;28;20312;-90
2022/08/12 12:12:20;;;;;;;2.42;1.80;;;37.30;43.60;;;;;;5068343;28;20259;-88
2022/08/12 12:14:51;;;;;;;1.60;1.50;;;36.90;42.70;;;;;;5076250;28;20209;-89
2022/08/12 12:17:23;;;;;;;1.55;1.45;;;36.80;43.60;;;;;;5058710;28;20261;-90
2022/08/12 12:19:51;;;;;;;1.40;1.30;;;36.10;43.00;;;;;;5054013;28;20246;-90
2022/08/12 12:22:20;;;;;;;2.55;2.25;;;35.50;44.10;;;;;;5053918;28;20229;-90
2022/08/12 12:24:54;;;;;;;1.80;1.70;;;35.60;45.60;;;;;;5054178;28;20208;-90
2022/08/12 12:27:22;;;;;;;2.80;2.60;;;35.80;41.00;;;;;;5053929;28;20219;-90
2022/08/12 12:30:12;;;;;;;1.60;1.48;;;36.30;43.40;;;;;;5053363;28;20205;-89
2022/08/12 12:32:57;;;;;;;1.55;1.45;;;36.50;43.50;;;;;;5053601;28;20228;-91
2022/08/12 12:35:25;;;;;;;3.13;1.70;;;36.50;41.60;;;;;;5053744;28;20295;-90
2022/08/12 12:38:15;;;;;;;1.25;1.25;;;36.50;43.10;;;;;;5054316;28;20209;-89
2022/08/12 12:40:46;;;;;;;2.13;2.00;;;36.40;43.90;;;;;;5053325;28;20225;-90
2022/08/12 12:43:17;;;;;;;4.03;1.50;;;36.40;45.10;;;;;;5053726;28;20213;-90
2022/08/12 12:46:07;;;;;;;1.10;1.10;;;36.30;41.80;;;;;;5053297;28;20208;-89
2022/08/12 12:48:36;;;;;;;2.47;2.10;;;36.30;41.20;;;;;;5052386;28;20255;-90
2022/08/12 12:51:17;;;;;;;1.60;1.50;;;36.40;41.10;;;;;;5053623;28;20227;-90
2022/08/12 12:54:05;;;;;;;1.33;1.25;;;36.20;41.40;;;;;;5053747;28;20205;-90
2022/08/12 12:56:40;;;;;;;1.00;1.00;;;36.30;42.50;;;;;;5053676;28;20209;-90
2022/08/12 12:59:10;;;;;;;1.00;1.00;;;36.30;41.40;;;;;;5052840;28;20211;-90
2022/08/12 13:02:03;;;;;;;1.20;1.13;;;35.60;39.90;;;;;;5053211;28;20232;-90
2022/08/12 13:04:36;;;;;;;1.52;1.42;;;35.50;42.20;;;;;;5053044;28;20211;-90
2022/08/12 13:07:05;;;;;;;1.05;1.05;;;35.40;42.20;;;;;;5053047;28;20209;-91
2022/08/12 13:09:34;;;;;;;1.20;1.10;;;35.00;41.60;;;;;;5052386;28;20225;-90
2022/08/12 13:12:07;;;;;;;1.33;1.23;;;34.90;43.50;;;;;;5052713;28;20221;-89
2022/08/12 13:14:37;;;;;;;0.90;0.85;;;34.90;43.20;;;;;;5052946;28;20228;-90
2022/08/12 13:17:10;;;;;;;1.63;1.52;;;34.90;43.90;;;;;;5052794;28;20227;-90
2022/08/12 13:19:42;;;;;;;1.40;1.30;;;34.70;42.00;;;;;;5052540;28;20207;-91
2022/08/12 13:22:18;;;;;;;1.52;1.42;;;34.80;44.30;;;;;;5052400;28;20228;-90
2022/08/12 13:24:49;;;;;;;1.38;1.27;;;34.90;43.50;;;;;;5053022;28;20213;-89
2022/08/12 13:27:28;;;;;;;2.65;1.38;;;34.90;41.60;;;;;;5053016;28;20208;-92
2022/08/12 13:30:05;;;;;;;1.60;1.50;;;34.60;41.60;;;;;;5052327;28;20305;-90
2022/08/12 13:32:40;;;;;;;1.70;1.60;;;34.50;42.80;;;;;;5052157;28;20196;-90
2022/08/12 13:35:09;;;;;;;1.98;1.35;;;34.20;42.60;;;;;;5052573;28;20221;-90
2022/08/12 13:37:59;;;;;;;1.10;1.10;;;34.20;43.30;;;;;;5052223;28;20216;-90
2022/08/12 13:40:32;;;;;;;1.20;1.10;;;34.00;43.10;;;;;;5052370;28;20225;-91
2022/08/12 13:43:01;;;;;;;1.33;1.23;;;34.10;40.90;;;;;;5052522;28;20232;-90
2022/08/12 13:45:34;;;;;;;1.20;1.20;;;33.60;40.90;;;;;;5052424;28;20258;-91
2022/08/12 13:48:06;;;;;;;1.23;1.17;;;33.40;43.20;;;;;;5051978;28;20292;-90
2022/08/12 13:50:37;;;;;;;1.50;1.30;;;33.20;44.10;;;;;;5051956;28;20319;-90
2022/08/12 13:53:08;;;;;;;1.50;1.40;;;32.90;44.10;;;;;;5052406;28;20283;-90
2022/08/12 13:55:53;;;;;;;1.58;1.48;;;33.10;44.60;;;;;;5052714;28;20205;-90
2022/08/12 13:58:30;;;;;;;8.75;1.67;;;33.10;45.10;;;;;;5052233;28;20250;-91
2022/08/12 14:01:04;;;;;;;1.40;1.30;;;33.10;43.40;;;;;;5052750;28;20229;-91
2022/08/12 14:03:37;;;;;;;1.25;1.20;;;33.00;42.90;;;;;;5052247;28;20202;-90
2022/08/12 14:06:19;;;;;;;1.73;1.63;;;32.80;44.40;;;;;;5051936;28;20207;-90
2022/08/12 14:08:48;;;;;;;1.77;1.67;;;32.90;43.70;;;;;;5051787;28;20218;-90
2022/08/12 14:11:18;;;;;;;1.70;1.60;;;32.80;43.40;;;;;;5052136;28;20251;-90
2022/08/12 14:13:52;;;;;;;1.73;1.50;;;32.90;43.50;;;;;;5052115;28;20208;-90
2022/08/12 14:16:34;;;;;;;1.30;1.30;;;32.90;43.10;;;;;;5052627;28;20209;-90
2022/08/12 14:19:17;;;;;;;1.50;1.40;;;33.10;45.50;;;;;;5052133;28;20209;-90
2022/08/12 14:21:50;;;;;;;2.05;1.33;;;33.40;44.00;;;;;;5053178;28;20271;-90
2022/08/12 14:24:33;;;;;;;1.35;1.25;;;33.40;42.60;;;;;;5056253;28;20310;-90
2022/08/12 14:27:03;;;;;;;1.05;1.05;;;33.30;45.30;;;;;;5056122;28;20251;-90
2022/08/12 14:29:37;;;;;;;1.40;1.30;;;33.10;43.10;;;;;;5055666;28;20234;-90
2022/08/12 14:32:25;;;;;;;1.05;1.00;;;33.20;45.60;;;;;;5056443;28;20229;-90
2022/08/12 14:34:55;;;;;;;1.73;1.63;;;33.20;45.20;;;;;;5056432;28;20293;-90
2022/08/12 14:37:23;;;;;;;34.85;2.30;;;32.60;42.30;;;;;;5056078;28;20288;-90
2022/08/12 14:40:14;;;;;;;1.45;1.35;;;32.40;43.60;;;;;;5056029;28;20213;-91
2022/08/12 14:42:46;;;;;;;1.35;1.35;;;32.30;44.30;;;;;;5056603;28;20205;-91
2022/08/12 14:45:14;;;;;;;2.10;1.90;;;32.00;45.20;;;;;;5056045;28;20264;-90
2022/08/12 14:47:52;;;;;;;1.60;1.48;;;31.80;46.20;;;;;;5055877;28;20219;-90
2022/08/12 14:50:27;;;;;;;2.25;1.67;;;31.60;45.20;;;;;;5055783;28;20304;-91
2022/08/12 14:53:16;;;;;;;1.65;1.50;;;31.50;46.10;;;;;;5057396;28;20270;-91
2022/08/12 14:56:05;;;;;;;1.60;1.48;;;31.40;46.30;;;;;;5056730;28;20237;-90
2022/08/12 15:01:47;;;;;;;1.20;1.20;;;31.30;47.40;;;;;;5001451;28;20224;-90
2022/08/12 15:04:27;;;;;;;2.00;1.70;;;31.30;46.20;;;;;;5056123;28;20209;-90
2022/08/12 15:06:57;;;;;;;1.35;1.30;;;31.20;46.80;;;;;;5056549;28;20292;-90
2022/08/12 15:09:27;;;;;;;2.53;1.38;;;31.20;45.60;;;;;;5055341;28;20232;-90
2022/08/12 15:11:56;;;;;;;1.45;1.35;;;31.10;44.60;;;;;;5056572;28;20233;-90
2022/08/12 15:14:31;;;;;;;1.45;1.35;;;30.90;44.90;;;;;;5058569;28;20201;-90
2022/08/12 15:17:05;;;;;;;1.33;1.23;;;30.90;46.20;;;;;;5055663;28;20208;-90
2022/08/12 15:19:33;;;;;;;1.33;1.23;;;30.80;44.70;;;;;;5055372;28;20198;-90
2022/08/12 15:22:23;;;;;;;1.50;1.40;;;30.70;46.60;;;;;;5054728;28;20239;-91